Time;durP1;ratioP1;P1;durP2;ratioP2;P2;SDS_P1;SDS_P2;PMS_P1;PMS_P2;Temp;Humidity;BMP_temperature;BMP_pressure;BME280_temperature;BME280_humidity;BME280_pressure;Samples;Min_cycle;Max_cycle;Signal;HPM_P1;HPM_P2
2023/06/25 00:00:07;;;;;;;;;14.00;13.00;;;;;26.51;45.58;101257.13;2088664;28;45967;-57
2023/06/25 00:01:07;;;;;;;;;12.80;11.40;;;;;26.49;45.48;101265.41;2088852;28;45177;-58
2023/06/25 00:02:08;;;;;;;;;10.75;10.75;;;;;26.48;45.30;101263.69;2087227;28;46146;-59
2023/06/25 00:03:08;;;;;;;;;12.75;11.00;;;;;26.47;45.79;101259.22;2088081;28;46434;-58
2023/06/25 00:04:10;;;;;;;;;18.50;17.25;;;;;26.46;45.23;101249.34;2087556;28;46156;-58
2023/06/25 00:05:10;;;;;;;;;12.40;12.40;;;;;26.46;45.84;101262.06;2083769;28;47269;-58
2023/06/25 00:06:11;;;;;;;;;14.25;14.25;;;;;26.45;45.73;101263.94;2080397;28;45823;-57
2023/06/25 00:07:11;;;;;;;;;13.00;13.00;;;;;26.44;45.50;101264.94;2086972;28;46461;-56
2023/06/25 00:08:11;;;;;;;;;14.00;14.00;;;;;26.44;45.53;101269.50;2088361;28;46252;-61
2023/06/25 00:09:12;;;;;;;;;15.75;15.75;;;;;26.44;45.71;101264.06;2088022;28;46602;-57
2023/06/25 00:10:12;;;;;;;;;15.25;15.00;;;;;26.44;45.89;101264.94;2088895;28;45423;-58
2023/06/25 00:11:12;;;;;;;;;12.25;11.75;;;;;26.44;45.90;101269.50;2087857;28;46161;-57
2023/06/25 00:12:13;;;;;;;;;14.50;13.75;;;;;26.43;45.66;101265.06;2096287;28;45933;-58
2023/06/25 00:13:13;;;;;;;;;13.50;11.75;;;;;26.40;45.42;101258.84;2096236;28;45121;-58
2023/06/25 00:14:13;;;;;;;;;15.50;14.25;;;;;26.40;45.26;101258.84;2088541;28;46024;-57
2023/06/25 00:15:14;;;;;;;;;12.50;12.50;;;;;26.40;45.97;101257.97;2088144;28;45792;-61
2023/06/25 00:16:14;;;;;;;;;13.00;13.00;;;;;26.40;45.24;101255.25;2088339;28;45886;-57
2023/06/25 00:17:17;;;;;;;;;14.50;13.50;;;;;26.39;45.72;101259.81;2088037;28;46049;-58
2023/06/25 00:18:18;;;;;;;;;15.20;14.40;;;;;26.39;45.73;101254.38;2088197;28;46663;-56
2023/06/25 00:19:18;;;;;;;;;14.25;13.50;;;;;26.39;45.32;101257.09;2088587;28;45954;-57
2023/06/25 00:20:18;;;;;;;;;16.25;14.50;;;;;26.38;45.89;101249.06;2086929;28;44958;-56
2023/06/25 00:21:19;;;;;;;;;15.50;14.50;;;;;26.36;45.45;101251.03;2087706;28;46641;-57
2023/06/25 00:22:19;;;;;;;;;15.00;13.75;;;;;26.36;45.41;101251.03;2088311;28;46575;-58
2023/06/25 00:23:19;;;;;;;;;17.00;16.25;;;;;26.36;45.67;101248.31;2096111;28;44984;-57
2023/06/25 00:24:20;;;;;;;;;14.75;14.75;;;;;26.32;46.02;101247.69;2095988;28;45970;-59
2023/06/25 00:25:20;;;;;;;;;13.25;13.00;;;;;26.31;45.70;101243.22;2088109;28;45176;-57
2023/06/25 00:26:21;;;;;;;;;19.25;19.25;;;;;26.31;46.03;101242.38;2088056;28;46032;-57
2023/06/25 00:27:21;;;;;;;;;13.00;13.00;;;;;26.30;45.51;101238.78;2088313;28;46525;-59
2023/06/25 00:28:21;;;;;;;;;13.75;13.25;;;;;26.29;45.79;101242.47;2079826;28;46644;-58
2023/06/25 00:29:22;;;;;;;;;15.00;13.50;;;;;26.28;46.01;101240.72;2082128;28;45539;-58
2023/06/25 00:30:22;;;;;;;;;16.00;15.75;;;;;26.27;46.05;101236.28;2087848;28;46496;-57
2023/06/25 00:31:22;;;;;;;;;17.00;17.00;;;;;26.27;45.63;101238.13;2087907;28;45827;-60
2023/06/25 00:32:24;;;;;;;;;10.00;8.25;;;;;26.25;46.10;101232.81;2087949;28;46536;-57
2023/06/25 00:33:24;;;;;;;;;14.60;12.60;;;;;26.24;46.30;101238.38;2087763;28;46744;-57
2023/06/25 00:34:24;;;;;;;;;17.75;13.75;;;;;26.24;46.22;101241.09;2087666;28;46558;-56
2023/06/25 00:35:50;;;;;;;;;13.75;13.50;;;;;26.23;45.75;101237.53;2088217;28;46636;-57
2023/06/25 00:36:53;;;;;;;;;12.00;12.00;;;;;26.24;45.77;101241.09;2080054;28;46395;-57
2023/06/25 00:37:57;;;;;;;;;15.20;14.20;;;;;26.22;46.30;101233.06;2085006;28;46780;-59
2023/06/25 00:38:59;;;;;;;;;20.80;18.40;;;;;26.21;46.23;101234.06;2088061;28;46519;-58
2023/06/25 00:39:59;;;;;;;;;14.80;14.80;;;;;26.21;45.81;101238.63;2095733;28;45997;-57
2023/06/25 00:41:00;;;;;;;;;16.00;13.75;;;;;26.19;45.71;101233.31;2095778;28;46795;-56
2023/06/25 00:42:00;;;;;;;;;17.00;13.25;;;;;26.17;46.36;101235.28;2088481;28;44948;-58
2023/06/25 00:43:03;;;;;;;;;15.25;13.75;;;;;26.15;46.57;101225.50;2087759;28;46290;-58
2023/06/25 00:44:05;;;;;;;;;14.20;13.60;;;;;26.13;45.94;101231.06;2088540;28;45843;-57
2023/06/25 00:45:10;;;;;;;;;12.00;12.00;;;;;26.11;46.53;101224.88;2087956;28;45745;-57
2023/06/25 00:46:15;;;;;;;;;16.00;15.00;;;;;26.07;46.67;101223.41;2088173;28;45601;-58
2023/06/25 00:47:16;;;;;;;;;14.40;14.00;;;;;26.05;46.68;101228.09;2087785;28;48925;-57
2023/06/25 00:48:17;;;;;;;;;14.60;14.60;;;;;26.00;46.38;101223.00;2088335;28;45897;-56
2023/06/25 00:49:17;;;;;;;;;14.75;12.75;;;;;25.99;46.94;101224.00;2088384;28;45858;-57
2023/06/25 00:50:21;;;;;;;;;13.75;13.75;;;;;25.99;46.88;101220.41;2088039;28;45968;-57
2023/06/25 00:51:26;;;;;;;;;14.60;13.60;;;;;25.99;46.97;101225.84;2088272;28;46682;-58
2023/06/25 00:52:27;;;;;;;;;11.80;11.00;;;;;25.99;46.35;101221.28;2088451;28;45628;-56
2023/06/25 00:53:34;;;;;;;;;12.00;11.75;;;;;25.99;46.64;101217.69;2088131;28;46909;-58
2023/06/25 00:54:37;;;;;;;;;14.20;11.60;;;;;25.97;46.60;101220.53;2087428;28;46245;-57
2023/06/25 00:55:38;;;;;;;;;11.00;11.00;;;;;25.96;46.40;101221.53;2086972;28;46574;-57
2023/06/25 00:56:38;;;;;;;;;12.75;12.00;;;;;25.96;46.44;101221.53;2087871;28;46769;-57
2023/06/25 00:57:41;;;;;;;;;11.75;11.50;;;;;25.96;46.86;101231.53;2088146;28;45571;-56
2023/06/25 00:58:41;;;;;;;;;14.60;14.40;;;;;25.95;47.04;101227.09;2087745;28;46663;-56
2023/06/25 00:59:43;;;;;;;;;10.25;10.25;;;;;25.95;47.05;101225.22;2087878;28;45671;-57
2023/06/25 01:00:43;;;;;;;;;12.00;12.00;;;;;25.93;47.30;101219.03;2087285;28;45612;-60
2023/06/25 01:01:54;;;;;;;;;13.50;13.00;;;;;25.91;46.63;101223.72;2087770;28;45903;-57
2023/06/25 01:03:09;;;;;;;;;12.20;12.20;;;;;25.92;46.71;101216.41;2088507;28;46486;-58
2023/06/25 01:04:19;;;;;;;;;12.80;12.00;;;;;25.93;46.56;101213.59;2088025;28;45619;-56
2023/06/25 01:05:19;;;;;;;;;13.80;13.00;;;;;25.94;46.65;101218.06;2082867;28;47376;-57
2023/06/25 01:06:29;;;;;;;;;15.50;13.75;;;;;25.93;47.09;101210.03;2080013;28;46132;-57
2023/06/25 01:07:30;;;;;;;;;14.00;12.20;;;;;25.92;46.69;101211.88;2080057;28;46787;-56
2023/06/25 01:08:36;;;;;;;;;13.40;12.80;;;;;25.94;46.57;101214.47;2084764;28;46652;-57
2023/06/25 01:09:37;;;;;;;;;12.00;11.60;;;;;25.93;46.78;101207.31;2087979;28;45595;-56
2023/06/25 01:10:38;;;;;;;;;10.80;10.40;;;;;25.91;47.13;101209.25;2088064;28;46758;-56
2023/06/25 01:11:39;;;;;;;;;15.80;13.60;;;;;25.91;46.91;101206.53;2087939;28;46807;-56
2023/06/25 01:12:40;;;;;;;;;12.25;11.75;;;;;25.89;47.19;101203.94;2087819;28;45703;-58
2023/06/25 01:13:40;;;;;;;;;14.20;12.60;;;;;25.88;46.98;101206.78;2087011;28;46880;-57
2023/06/25 01:14:40;;;;;;;;;12.50;12.00;;;;;25.83;47.42;101206.28;2088041;28;45412;-57
2023/06/25 01:15:41;;;;;;;;;10.00;10.00;;;;;25.79;47.12;101209.25;2094678;28;46990;-55
2023/06/25 01:16:42;;;;;;;;;11.80;11.00;;;;;25.77;47.26;101205.75;2095016;28;45599;-57
2023/06/25 01:17:42;;;;;;;;;13.00;11.75;;;;;25.77;47.05;101199.44;2088643;28;45121;-56
2023/06/25 01:18:43;;;;;;;;;12.50;12.50;;;;;25.78;47.42;101206.63;2087960;28;45803;-57
2023/06/25 01:19:45;;;;;;;;;10.50;10.00;;;;;25.80;47.07;101199.25;2087420;28;45483;-58
2023/06/25 01:20:51;;;;;;;;;12.00;10.60;;;;;25.81;47.59;101200.97;2095713;28;45445;-58
2023/06/25 01:21:52;;;;;;;;;9.20;9.20;;;;;25.80;47.40;101197.38;2095015;28;45846;-57
2023/06/25 01:22:55;;;;;;;;;10.25;9.75;;;;;25.81;46.90;101201.84;2087965;28;46613;-57
2023/06/25 01:23:56;;;;;;;;;14.40;10.80;;;;;25.81;46.89;101193.69;2088144;28;46609;-57
2023/06/25 01:24:57;;;;;;;;;13.25;13.00;;;;;25.84;47.76;101199.84;2088208;28;46831;-58
2023/06/25 01:25:58;;;;;;;;;14.60;13.80;;;;;25.83;46.97;101198.13;2087070;28;48752;-57
2023/06/25 01:26:59;;;;;;;;;12.00;10.25;;;;;25.82;46.99;101202.69;2087204;28;46160;-56
2023/06/25 01:28:00;;;;;;;;;11.00;10.00;;;;;25.82;47.08;101208.13;2087812;28;46658;-55
2023/06/25 01:29:00;;;;;;;;;13.50;12.50;;;;;25.80;47.37;101208.25;2087763;28;45170;-56
2023/06/25 01:30:03;;;;;;;;;11.25;11.25;;;;;25.78;47.38;101199.31;2087172;28;46418;-57
2023/06/25 01:31:03;;;;;;;;;10.80;10.60;;;;;25.79;47.56;101201.09;2079930;28;46182;-56
2023/06/25 01:32:06;;;;;;;;;11.75;11.75;;;;;25.81;47.43;101200.97;2084017;28;45886;-55
2023/06/25 01:33:07;;;;;;;;;11.20;11.00;;;;;25.81;47.71;101207.28;2087638;28;46896;-57
2023/06/25 01:34:07;;;;;;;;;10.00;10.00;;;;;25.81;47.05;101199.13;2086969;28;45938;-56
2023/06/25 01:35:10;;;;;;;;;13.00;11.60;;;;;25.83;46.92;101201.72;2087773;28;46966;-55
2023/06/25 01:36:10;;;;;;;;;12.40;10.00;;;;;25.85;47.13;101207.03;2088067;28;46048;-57
2023/06/25 01:37:11;;;;;;;;;10.50;10.50;;;;;25.83;47.16;101199.00;2087865;28;46011;-58
2023/06/25 01:38:12;;;;;;;;;10.60;9.60;;;;;25.83;47.67;101201.72;2087707;28;46234;-57
2023/06/25 01:39:12;;;;;;;;;11.75;10.75;;;;;25.81;47.20;101200.97;2087783;28;46201;-56
2023/06/25 01:40:13;;;;;;;;;13.00;12.75;;;;;25.83;47.56;101199.00;2087900;28;46903;-58
2023/06/25 01:41:13;;;;;;;;;14.00;13.50;;;;;25.83;47.25;101207.16;2087626;28;45781;-57
2023/06/25 01:42:14;;;;;;;;;11.50;10.50;;;;;25.85;47.50;101199.72;2087966;28;45744;-58
2023/06/25 01:43:14;;;;;;;;;12.25;10.75;;;;;25.85;47.08;101199.72;2088018;28;45679;-58
2023/06/25 01:44:30;;;;;;;;;11.75;11.75;;;;;25.85;47.62;101202.44;2087921;28;46360;-58
2023/06/25 01:45:30;;;;;;;;;12.60;10.80;;;;;25.86;47.27;101197.88;2088738;28;46983;-56
2023/06/25 01:46:31;;;;;;;;;10.25;10.25;;;;;25.86;47.60;101196.03;2089243;28;46424;-58
2023/06/25 01:47:31;;;;;;;;;14.00;12.75;;;;;25.87;47.77;101196.88;2089199;28;46275;-58
2023/06/25 01:48:31;;;;;;;;;12.25;12.25;;;;;25.88;47.66;101191.31;2097336;28;45700;-58
2023/06/25 01:49:31;;;;;;;;;12.00;10.50;;;;;25.89;47.28;101189.47;2097122;28;45053;-57
2023/06/25 01:50:33;;;;;;;;;11.25;10.75;;;;;25.89;47.15;101186.75;2088805;28;46464;-57
2023/06/25 01:51:33;;;;;;;;;9.40;9.40;;;;;25.90;47.40;101191.19;2089047;28;46741;-57
2023/06/25 01:52:34;;;;;;;;;12.25;12.25;;;;;25.89;47.80;101201.22;2089300;28;45895;-57
2023/06/25 01:53:35;;;;;;;;;10.25;10.25;;;;;25.87;47.64;101195.03;2089340;28;46297;-57
2023/06/25 01:54:35;;;;;;;;;13.25;9.00;;;;;25.87;47.75;101186.88;2088591;28;46260;-58
2023/06/25 01:55:36;;;;;;;;;13.50;12.00;;;;;25.87;47.30;101186.88;2088384;28;46453;-57
2023/06/25 01:56:36;;;;;;;;;8.00;8.00;;;;;25.88;46.93;101187.75;2089053;28;46497;-56
2023/06/25 01:57:36;;;;;;;;;9.75;9.50;;;;;25.87;47.65;101183.28;2088427;28;46004;-58
2023/06/25 01:58:37;;;;;;;;;9.50;9.25;;;;;25.87;47.79;101189.59;2088847;28;46386;-56
2023/06/25 01:59:37;;;;;;;;;5.75;5.75;;;;;25.86;47.34;101181.56;2089530;28;45249;-56
2023/06/25 02:00:38;;;;;;;;;10.00;10.00;;;;;25.86;47.01;101185.16;2089960;28;45980;-57
2023/06/25 02:01:39;;;;;;;;;12.20;9.20;;;;;25.85;47.46;101183.41;2088917;28;46740;-56
2023/06/25 02:02:39;;;;;;;;;9.00;9.00;;;;;25.84;47.10;101178.97;2088870;28;46747;-55
2023/06/25 02:03:40;;;;;;;;;8.50;7.25;;;;;25.84;47.48;101178.97;2089494;28;45909;-56
2023/06/25 02:04:40;;;;;;;;;8.50;8.50;;;;;25.82;47.59;101175.50;2089070;28;46453;-56
2023/06/25 02:05:41;;;;;;;;;8.75;7.50;;;;;25.84;47.54;101184.41;2081541;28;46378;-57
2023/06/25 02:06:42;;;;;;;;;10.40;10.40;;;;;25.83;47.03;101171.81;2089483;28;45663;-57
2023/06/25 02:07:42;;;;;;;;;9.00;7.50;;;;;25.85;46.92;101171.69;2089276;28;46950;-59
2023/06/25 02:08:42;;;;;;;;;7.50;7.50;;;;;25.86;46.92;101173.41;2089325;28;45814;-57
2023/06/25 02:09:43;;;;;;;;;9.75;9.75;;;;;25.84;47.48;101178.97;2082167;28;45608;-58
2023/06/25 02:10:43;;;;;;;;;7.50;7.50;;;;;25.87;46.88;101173.28;2090180;28;46396;-56
2023/06/25 02:11:45;;;;;;;;;9.25;9.25;;;;;25.86;47.30;101171.56;2087599;28;46772;-56
2023/06/25 02:12:46;;;;;;;;;8.60;8.60;;;;;25.87;47.40;101170.56;2087645;28;46561;-56
2023/06/25 02:13:46;;;;;;;;;9.50;8.75;;;;;25.87;46.87;101172.41;2088212;28;45825;-56
2023/06/25 02:14:46;;;;;;;;;9.00;8.00;;;;;25.87;47.29;101172.41;2088064;28;46418;-56
2023/06/25 02:15:47;;;;;;;;;10.00;10.00;;;;;25.87;46.83;101173.28;2088429;28;46175;-56
2023/06/25 02:16:47;;;;;;;;;10.00;10.00;;;;;25.87;47.40;101166.97;2087867;28;45810;-58
2023/06/25 02:17:47;;;;;;;;;10.00;10.00;;;;;25.87;47.13;101170.56;2088046;28;45658;-55
2023/06/25 02:18:48;;;;;;;;;9.00;9.00;;;;;25.87;47.01;101172.41;2088069;28;47311;-55
2023/06/25 02:19:48;;;;;;;;;8.25;8.00;;;;;25.86;46.73;101168.84;2088225;28;46645;-59
2023/06/25 02:20:49;;;;;;;;;10.50;10.50;;;;;25.86;47.29;101165.25;2087892;28;46077;-58
2023/06/25 02:21:49;;;;;;;;;11.25;11.00;;;;;25.85;46.80;101164.38;2088339;28;46481;-58
2023/06/25 02:22:50;;;;;;;;;10.75;10.75;;;;;25.86;46.82;101167.97;2087884;28;45522;-58
2023/06/25 02:23:50;;;;;;;;;8.75;8.75;;;;;25.85;46.73;101156.22;2088775;28;46119;-55
2023/06/25 02:24:50;;;;;;;;;10.00;9.00;;;;;25.85;47.41;101161.66;2088132;28;45594;-56
2023/06/25 02:25:51;;;;;;;;;8.25;8.25;;;;;25.87;46.82;101161.53;2088189;28;46491;-56
2023/06/25 02:26:51;;;;;;;;;9.25;8.75;;;;;25.87;47.13;101159.69;2087649;28;45474;-57
2023/06/25 02:27:51;;;;;;;;;11.00;9.75;;;;;25.88;47.13;101158.69;2088003;28;46309;-57
2023/06/25 02:28:52;;;;;;;;;10.75;10.50;;;;;25.87;46.89;101153.38;2088054;28;45505;-54
2023/06/25 02:29:52;;;;;;;;;11.75;10.25;;;;;25.86;47.31;101159.81;2088384;28;45074;-55
2023/06/25 02:30:52;;;;;;;;;11.75;10.75;;;;;25.84;46.77;101156.34;2087924;28;46018;-56
2023/06/25 02:31:53;;;;;;;;;10.75;10.75;;;;;25.82;46.81;101151.03;2087488;28;46380;-56
2023/06/25 02:32:53;;;;;;;;;11.50;11.00;;;;;25.81;47.15;101152.03;2087960;28;44966;-55
2023/06/25 02:33:54;;;;;;;;;7.75;7.75;;;;;25.79;47.03;101146.72;2087916;28;45914;-55
2023/06/25 02:34:54;;;;;;;;;10.20;10.20;;;;;25.76;47.12;101146.94;2087693;28;46469;-55
2023/06/25 02:35:56;;;;;;;;;9.00;9.00;;;;;25.75;47.05;101147.06;2087982;28;47734;-56
2023/06/25 02:36:56;;;;;;;;;8.80;8.80;;;;;25.72;46.98;101144.59;2087961;28;45475;-56
2023/06/25 02:37:56;;;;;;;;;10.50;10.50;;;;;25.66;47.20;101140.44;2087416;28;47104;-55
2023/06/25 02:38:57;;;;;;;;;11.25;10.00;;;;;25.62;47.45;101141.69;2087965;28;46203;-56
2023/06/25 02:39:57;;;;;;;;;14.00;12.75;;;;;25.59;47.62;101136.50;2087408;28;46189;-57
2023/06/25 02:40:58;;;;;;;;;9.50;9.50;;;;;25.59;47.22;101135.63;2088080;28;45661;-57
2023/06/25 02:41:58;;;;;;;;;11.50;9.00;;;;;25.58;47.29;101133.91;2088000;28;45706;-57
2023/06/25 02:42:58;;;;;;;;;12.25;10.75;;;;;25.57;47.28;101134.88;2088123;28;46111;-57
2023/06/25 02:43:58;;;;;;;;;12.25;11.00;;;;;25.53;47.58;101135.09;2089549;28;45490;-53
2023/06/25 02:44:59;;;;;;;;;11.00;10.75;;;;;25.49;48.06;101138.19;2088978;28;46214;-55
2023/06/25 02:45:59;;;;;;;;;10.75;10.75;;;;;25.48;47.55;101131.03;2088845;28;45076;-56
2023/06/25 02:47:00;;;;;;;;;10.00;9.00;;;;;25.46;48.17;101128.44;2089593;28;45578;-57
2023/06/25 02:48:00;;;;;;;;;9.75;9.75;;;;;25.42;48.13;101137.81;2088526;28;44988;-56
2023/06/25 02:49:01;;;;;;;;;8.75;8.75;;;;;25.40;48.25;101128.88;2096677;28;44971;-57
2023/06/25 02:50:01;;;;;;;;;10.50;10.50;;;;;25.37;47.67;101131.84;2096252;28;46361;-56
2023/06/25 02:51:02;;;;;;;;;12.50;10.00;;;;;25.35;48.27;101133.81;2088648;28;45823;-56
2023/06/25 02:52:02;;;;;;;;;12.00;11.75;;;;;25.35;48.35;101132.94;2088941;28;45714;-57
2023/06/25 02:53:03;;;;;;;;;11.50;11.50;;;;;25.34;48.51;101128.50;2088638;28;46827;-57
2023/06/25 02:54:03;;;;;;;;;11.25;11.25;;;;;25.30;47.89;101130.59;2088924;28;45665;-57
2023/06/25 02:55:04;;;;;;;;;14.50;12.00;;;;;25.27;48.58;101132.66;2089490;28;45644;-57
2023/06/25 02:56:04;;;;;;;;;10.40;10.40;;;;;25.23;48.47;101126.59;2088431;28;46535;-58
2023/06/25 02:57:05;;;;;;;;;8.75;8.75;;;;;25.20;48.38;101127.72;2085337;28;45708;-57
2023/06/25 02:58:05;;;;;;;;;10.50;9.75;;;;;25.16;48.32;101134.38;2080459;28;44979;-57
2023/06/25 02:59:05;;;;;;;;;10.75;10.50;;;;;25.12;48.68;101132.84;2086479;28;46119;-57
2023/06/25 03:00:07;;;;;;;;;9.00;9.00;;;;;25.09;48.70;101134.94;2088757;28;45805;-57
2023/06/25 03:01:07;;;;;;;;;10.60;10.60;;;;;25.07;48.81;101132.34;2089462;28;45733;-57
2023/06/25 03:02:07;;;;;;;;;10.50;10.50;;;;;25.06;49.10;101133.34;2088992;28;45619;-56
2023/06/25 03:03:08;;;;;;;;;9.50;8.75;;;;;25.06;48.78;101137.91;2088748;28;45614;-55
2023/06/25 03:04:08;;;;;;;;;10.00;8.75;;;;;25.05;49.38;101131.59;2088486;28;47361;-55
2023/06/25 03:05:08;;;;;;;;;10.00;10.00;;;;;25.05;49.08;101130.75;2087174;28;46133;-57
2023/06/25 03:06:09;;;;;;;;;10.00;9.50;;;;;25.04;48.69;101134.44;2088276;28;46460;-57
2023/06/25 03:07:09;;;;;;;;;11.25;11.25;;;;;25.03;48.79;101136.28;2088170;28;46500;-54
2023/06/25 03:08:10;;;;;;;;;9.00;8.00;;;;;25.03;48.87;101132.69;2087799;28;46279;-55
2023/06/25 03:09:10;;;;;;;;;7.75;7.75;;;;;25.02;48.45;101131.81;2089077;28;45782;-59
2023/06/25 03:10:10;;;;;;;;;10.25;9.25;;;;;25.02;49.27;101136.38;2089069;28;45567;-57
2023/06/25 03:11:11;;;;;;;;;9.50;8.00;;;;;25.01;48.87;101137.38;2088505;28;46297;-57
2023/06/25 03:12:11;;;;;;;;;8.50;8.00;;;;;25.00;48.79;101139.19;2088452;28;45563;-59
2023/06/25 03:13:11;;;;;;;;;10.00;8.75;;;;;25.00;49.22;101141.03;2087844;28;46760;-56
2023/06/25 03:14:12;;;;;;;;;9.00;9.00;;;;;25.00;48.95;101135.59;2088954;28;46027;-57
2023/06/25 03:15:12;;;;;;;;;7.75;7.75;;;;;24.99;49.37;101134.72;2088899;28;45701;-56
2023/06/25 03:16:12;;;;;;;;;10.25;9.00;;;;;24.99;48.88;101142.00;2088865;28;45059;-57
2023/06/25 03:17:13;;;;;;;;;5.75;5.75;;;;;24.98;49.08;101137.56;2088254;28;46745;-56
2023/06/25 03:18:13;;;;;;;;;7.00;7.00;;;;;24.96;49.20;101137.69;2088325;28;45854;-58
2023/06/25 03:19:13;;;;;;;;;8.00;8.00;;;;;24.96;49.23;101148.56;2088323;28;45705;-58
2023/06/25 03:20:14;;;;;;;;;6.25;6.25;;;;;24.96;49.63;101148.56;2088573;28;45594;-56
2023/06/25 03:21:14;;;;;;;;;8.75;7.00;;;;;24.94;49.48;101137.81;2088417;28;46834;-57
2023/06/25 03:22:14;;;;;;;;;5.00;5.00;;;;;24.94;49.39;101140.53;2088806;28;46351;-58
2023/06/25 03:23:16;;;;;;;;;8.00;7.00;;;;;24.91;49.42;101137.19;2088279;28;46230;-56
2023/06/25 03:24:16;;;;;;;;;7.20;7.20;;;;;24.90;49.15;101135.41;2088568;28;46080;-57
2023/06/25 03:25:17;;;;;;;;;7.00;7.00;;;;;24.90;49.03;101130.00;2081913;28;46095;-58
2023/06/25 03:26:17;;;;;;;;;8.25;7.00;;;;;24.90;49.20;101135.41;2084588;28;45915;-58
2023/06/25 03:27:17;;;;;;;;;7.50;7.00;;;;;24.87;49.53;101136.53;2088093;28;45907;-57
2023/06/25 03:28:18;;;;;;;;;8.75;8.00;;;;;24.87;49.50;101127.50;2105058;27;45760;-57
2023/06/25 03:29:18;;;;;;;;;6.75;6.25;;;;;24.87;49.33;101125.66;2103927;27;46150;-57
2023/06/25 03:30:18;;;;;;;;;10.25;8.25;;;;;24.90;49.20;101121.84;2088554;28;45810;-56
2023/06/25 03:31:19;;;;;;;;;5.75;5.75;;;;;24.92;49.35;101122.63;2086295;28;46591;-55
2023/06/25 03:32:20;;;;;;;;;6.25;6.25;;;;;24.96;49.27;101126.81;2080534;28;45906;-57
2023/06/25 03:33:20;;;;;;;;;5.25;5.25;;;;;24.98;49.26;101124.84;2085776;28;45631;-56
2023/06/25 03:34:20;;;;;;;;;6.00;6.00;;;;;25.00;49.15;101120.16;2088620;28;45346;-58
2023/06/25 03:35:21;;;;;;;;;5.25;5.25;;;;;25.01;49.02;101121.06;2088933;28;45078;-56
2023/06/25 03:36:22;;;;;;;;;7.00;6.00;;;;;25.03;49.39;101120.00;2087806;28;46477;-57
2023/06/25 03:37:23;;;;;;;;;6.40;6.40;;;;;25.06;48.84;101121.59;2087867;28;46713;-56
2023/06/25 03:38:23;;;;;;;;;4.80;4.80;;;;;25.05;48.95;101118.03;2087425;28;46739;-57
2023/06/25 03:39:24;;;;;;;;;9.67;7.33;;;;;25.02;48.85;101126.38;2088613;28;46559;-57
2023/06/25 03:40:25;;;;;;;;;8.50;8.50;;;;;25.03;49.18;101119.09;2088615;28;45851;-54
2023/06/25 03:41:26;;;;;;;;;5.40;5.40;;;;;25.00;49.32;101120.16;2088819;28;45966;-57
2023/06/25 03:42:26;;;;;;;;;7.00;6.00;;;;;25.00;48.87;101127.44;2088759;28;46172;-56
2023/06/25 03:43:26;;;;;;;;;7.00;7.00;;;;;24.99;49.32;101120.28;2088428;28;45636;-58
2023/06/25 03:44:27;;;;;;;;;7.25;5.75;;;;;24.99;49.56;101123.00;2096342;28;45697;-55
2023/06/25 03:45:27;;;;;;;;;6.75;6.75;;;;;24.96;49.38;101118.69;2097047;28;46487;-57
2023/06/25 03:46:27;;;;;;;;;8.50;6.75;;;;;24.93;49.20;101116.22;2088168;28;46573;-56
2023/06/25 03:47:28;;;;;;;;;7.00;7.00;;;;;24.90;49.60;101124.56;2089383;28;45709;-57
2023/06/25 03:48:28;;;;;;;;;9.00;7.50;;;;;24.87;49.17;101122.94;2088516;28;46765;-57
2023/06/25 03:49:28;;;;;;;;;8.25;7.00;;;;;24.85;49.88;101116.78;2088525;28;46137;-56
2023/06/25 03:50:28;;;;;;;;;8.00;7.75;;;;;24.83;49.70;101120.59;2088153;28;46296;-56
2023/06/25 03:51:29;;;;;;;;;5.75;5.75;;;;;24.81;49.54;101115.28;2088189;28;45952;-57
2023/06/25 03:52:29;;;;;;;;;9.00;9.00;;;;;24.79;49.48;101119.97;2087558;28;45194;-55
2023/06/25 03:53:29;;;;;;;;;8.50;7.75;;;;;24.79;49.65;101119.97;2104576;28;45156;-57
2023/06/25 03:54:30;;;;;;;;;5.50;5.50;;;;;24.82;49.34;101121.56;2104087;28;45983;-56
2023/06/25 03:55:30;;;;;;;;;7.25;6.50;;;;;24.84;49.88;101119.59;2088397;28;45051;-56
2023/06/25 03:56:30;;;;;;;;;6.50;6.50;;;;;24.84;49.42;101120.47;2087544;28;46953;-57
2023/06/25 03:57:31;;;;;;;;;10.25;9.00;;;;;24.82;49.90;101122.44;2088112;28;46837;-56
2023/06/25 03:58:31;;;;;;;;;5.50;5.25;;;;;24.80;49.54;101116.25;2088356;28;46952;-56
2023/06/25 03:59:32;;;;;;;;;8.00;7.75;;;;;24.78;49.43;101117.38;2088490;28;45739;-56
2023/06/25 04:00:32;;;;;;;;;6.00;6.00;;;;;24.77;49.83;101115.59;2088073;28;46610;-57
2023/06/25 04:01:33;;;;;;;;;10.00;9.50;;;;;24.74;49.79;101119.41;2088612;28;45880;-57
2023/06/25 04:02:34;;;;;;;;;8.40;8.40;;;;;24.70;49.62;101112.50;2088321;28;46445;-57
2023/06/25 04:03:34;;;;;;;;;8.25;8.25;;;;;24.69;49.97;101110.75;2088344;28;47286;-57
2023/06/25 04:04:34;;;;;;;;;4.25;4.25;;;;;24.68;50.19;101114.47;2088021;28;46637;-58
2023/06/25 04:05:35;;;;;;;;;7.00;7.00;;;;;24.70;50.13;101111.63;2084144;28;46025;-58
2023/06/25 04:06:35;;;;;;;;;6.25;6.25;;;;;24.68;50.09;101111.75;2087763;28;45660;-57
2023/06/25 04:07:35;;;;;;;;;8.75;6.75;;;;;24.65;49.89;101115.56;2087916;28;45918;-58
2023/06/25 04:08:40;;;;;;;;;6.00;6.00;;;;;24.65;50.33;101114.69;2088487;28;46268;-57
2023/06/25 04:09:40;;;;;;;;;8.40;7.40;;;;;24.67;50.22;101120.00;2088428;28;45702;-57
2023/06/25 04:10:40;;;;;;;;;8.00;8.00;;;;;24.68;50.17;101122.59;2088606;28;46214;-57
2023/06/25 04:11:41;;;;;;;;;7.25;7.00;;;;;24.67;50.13;101114.59;2104481;28;47080;-57
2023/06/25 04:12:41;;;;;;;;;8.75;8.75;;;;;24.65;50.24;101123.72;2096615;28;45689;-57
2023/06/25 04:13:41;;;;;;;;;8.25;7.50;;;;;24.65;50.21;101120.13;2079820;28;45850;-58
2023/06/25 04:14:41;;;;;;;;;7.50;7.00;;;;;24.66;50.14;101119.16;2096148;28;45283;-57
2023/06/25 04:15:42;;;;;;;;;9.75;7.50;;;;;24.67;50.31;101117.28;2095788;28;46330;-57
2023/06/25 04:16:42;;;;;;;;;8.25;6.50;;;;;24.68;50.19;101113.59;2080359;28;45810;-58
2023/06/25 04:17:43;;;;;;;;;6.00;6.00;;;;;24.69;50.02;101126.19;2080203;28;45515;-56
2023/06/25 04:18:43;;;;;;;;;5.50;5.50;;;;;24.70;50.06;101117.06;2079853;28;45553;-57
2023/06/25 04:19:43;;;;;;;;;9.25;6.75;;;;;24.72;50.39;101118.66;2080505;28;45715;-56
2023/06/25 04:20:44;;;;;;;;;6.00;5.00;;;;;24.75;50.04;101117.56;2080361;28;45592;-57
2023/06/25 04:21:44;;;;;;;;;7.00;7.00;;;;;24.75;50.31;101117.56;2079766;28;45981;-57
2023/06/25 04:22:44;;;;;;;;;6.00;5.75;;;;;24.77;49.97;101112.88;2080027;28;46991;-56
2023/06/25 04:23:45;;;;;;;;;7.00;7.00;;;;;24.79;50.00;101114.53;2095615;28;46143;-55
2023/06/25 04:24:45;;;;;;;;;5.75;5.25;;;;;24.81;49.84;101111.69;2096146;28;46656;-56
2023/06/25 04:25:45;;;;;;;;;5.75;5.25;;;;;24.82;49.93;101118.84;2088340;28;45838;-59
2023/06/25 04:26:46;;;;;;;;;5.50;5.50;;;;;24.81;50.11;101112.56;2087998;28;46210;-55
2023/06/25 04:27:47;;;;;;;;;6.00;6.00;;;;;24.79;49.77;101110.94;2085364;28;45040;-57
2023/06/25 04:28:47;;;;;;;;;6.40;6.40;;;;;24.76;49.93;101112.03;2088633;28;46349;-56
2023/06/25 04:29:48;;;;;;;;;6.25;6.25;;;;;24.74;49.69;101121.25;2087977;28;45923;-57
2023/06/25 04:30:48;;;;;;;;;7.50;7.50;;;;;24.74;50.26;101115.84;2088374;28;45366;-57
2023/06/25 04:31:48;;;;;;;;;9.00;6.25;;;;;24.73;49.90;101109.53;2088252;28;45558;-58
2023/06/25 04:32:49;;;;;;;;;5.75;5.75;;;;;24.71;50.04;101108.78;2088070;28;45697;-57
2023/06/25 04:33:50;;;;;;;;;5.00;5.00;;;;;24.69;50.04;101118.03;2088426;28;45495;-56
2023/06/25 04:34:50;;;;;;;;;9.80;7.80;;;;;24.68;50.29;101116.31;2087461;28;45648;-55
2023/06/25 04:35:51;;;;;;;;;8.25;8.25;;;;;24.63;50.26;101108.50;2088762;28;45506;-57
2023/06/25 04:36:51;;;;;;;;;8.75;7.75;;;;;24.61;50.16;101115.88;2088013;28;46273;-56
2023/06/25 04:37:51;;;;;;;;;6.25;6.25;;;;;24.59;50.10;101110.56;2087862;28;46450;-55
2023/06/25 04:38:52;;;;;;;;;7.00;6.00;;;;;24.59;50.36;101115.13;2088563;28;45973;-58
2023/06/25 04:39:52;;;;;;;;;7.75;6.75;;;;;24.56;50.42;101113.53;2087984;28;46200;-56